createdAt,value
2023-04-29T00:00:06.990Z,2.80
2023-04-29T00:02:33.920Z,2.93
2023-04-29T00:05:01.162Z,4.17
2023-04-29T00:07:28.070Z,3.67
2023-04-29T00:09:54.691Z,3.00
2023-04-29T00:12:21.184Z,3.33
2023-04-29T00:14:47.830Z,3.77
2023-04-29T00:17:14.447Z,4.70
2023-04-29T00:19:41.507Z,3.37
2023-04-29T00:22:08.015Z,3.93
2023-04-29T00:24:34.891Z,3.63
2023-04-29T00:27:02.630Z,3.30
2023-04-29T00:29:29.306Z,3.30
2023-04-29T00:31:55.981Z,3.80
2023-04-29T00:34:22.729Z,3.70
2023-04-29T00:36:49.536Z,3.37
2023-04-29T00:39:16.191Z,3.23
2023-04-29T00:41:42.871Z,2.80
2023-04-29T00:44:10.149Z,3.37
2023-04-29T00:46:36.964Z,3.20
2023-04-29T00:49:04.228Z,4.00
2023-04-29T00:51:30.952Z,3.17
2023-04-29T00:53:57.668Z,3.07
2023-04-29T00:56:24.780Z,3.43
2023-04-29T00:58:52.660Z,3.23
2023-04-29T01:01:20.290Z,3.60
2023-04-29T01:03:47.156Z,3.03
2023-04-29T01:06:17.744Z,3.30
2023-04-29T01:08:49.613Z,3.13
2023-04-29T01:11:21.672Z,2.47
2023-04-29T01:13:54.637Z,3.30
2023-04-29T01:16:33.956Z,3.93
2023-04-29T01:19:07.472Z,3.43
2023-04-29T01:21:47.126Z,3.53
2023-04-29T01:24:14.249Z,3.50
2023-04-29T01:26:46.272Z,3.30
2023-04-29T01:29:19.792Z,3.90
2023-04-29T01:32:04.437Z,3.40
2023-04-29T01:34:54.045Z,2.60
2023-04-29T01:37:39.100Z,3.50
2023-04-29T01:40:12.442Z,3.57
2023-04-29T01:42:46.029Z,3.43
2023-04-29T01:45:17.210Z,3.40
2023-04-29T01:47:46.752Z,3.60
2023-04-29T01:50:13.318Z,3.63
2023-04-29T01:52:40.066Z,3.23
2023-04-29T01:55:07.064Z,3.60
2023-04-29T01:57:34.453Z,3.10
2023-04-29T02:00:02.225Z,3.20
2023-04-29T02:02:28.835Z,3.40
2023-04-29T02:04:56.039Z,3.50
2023-04-29T02:07:22.800Z,3.63
2023-04-29T02:09:49.576Z,3.87
2023-04-29T02:12:17.086Z,3.53
2023-04-29T02:14:43.894Z,3.10
2023-04-29T02:17:10.449Z,3.97
2023-04-29T02:19:37.063Z,3.30
2023-04-29T02:22:03.677Z,3.00
2023-04-29T02:24:30.382Z,2.63
2023-04-29T02:26:57.234Z,3.80
2023-04-29T02:29:23.815Z,2.60
2023-04-29T02:31:50.929Z,2.97
2023-04-29T02:34:17.413Z,2.30
2023-04-29T02:36:44.024Z,2.87
2023-04-29T02:39:10.700Z,2.40
2023-04-29T02:41:37.629Z,2.57
2023-04-29T02:44:04.138Z,2.80
2023-04-29T02:46:33.017Z,1.97
2023-04-29T02:48:59.817Z,2.80
2023-04-29T02:51:26.687Z,2.67
2023-04-29T02:53:53.210Z,2.63
2023-04-29T02:56:20.190Z,2.13
2023-04-29T02:58:46.907Z,2.50
2023-04-29T03:01:13.450Z,2.27
2023-04-29T03:03:40.381Z,2.60
2023-04-29T03:06:07.031Z,2.00
2023-04-29T03:08:34.157Z,2.60
2023-04-29T03:11:00.704Z,2.03
2023-04-29T03:13:27.457Z,2.03
2023-04-29T03:15:54.050Z,2.43
2023-04-29T03:18:20.621Z,2.67
2023-04-29T03:20:47.386Z,2.63
2023-04-29T03:23:13.979Z,2.37
2023-04-29T03:25:40.785Z,2.30
2023-04-29T03:28:07.926Z,2.93
2023-04-29T03:30:34.587Z,2.87
2023-04-29T03:33:01.286Z,2.43
2023-04-29T03:35:27.867Z,2.63
2023-04-29T03:37:54.549Z,2.67
2023-04-29T03:40:21.647Z,3.00
2023-04-29T03:42:48.280Z,2.17
2023-04-29T03:45:15.036Z,2.00
2023-04-29T03:47:41.720Z,2.50
2023-04-29T03:50:09.112Z,2.27
2023-04-29T03:52:39.279Z,2.67
2023-04-29T03:55:06.077Z,2.00
2023-04-29T03:57:32.642Z,2.77
2023-04-29T03:59:59.176Z,2.07
2023-04-29T04:02:26.044Z,2.37
2023-04-29T04:04:55.295Z,2.60
2023-04-29T04:07:22.188Z,2.53
2023-04-29T04:09:48.730Z,3.00
2023-04-29T04:12:15.626Z,2.60
2023-04-29T04:14:42.406Z,2.30
2023-04-29T04:17:08.951Z,2.53
2023-04-29T04:19:35.530Z,2.30
2023-04-29T04:22:04.189Z,2.47
2023-04-29T04:24:30.882Z,2.27
2023-04-29T04:26:57.513Z,2.30
2023-04-29T04:29:24.178Z,2.27
2023-04-29T04:31:50.828Z,2.23
2023-04-29T04:34:17.460Z,2.27
2023-04-29T04:36:44.030Z,2.57
2023-04-29T04:39:10.630Z,2.40
2023-04-29T04:41:37.189Z,2.43
2023-04-29T04:44:04.287Z,2.87
2023-04-29T04:46:30.970Z,2.60
2023-04-29T04:48:57.613Z,2.57
2023-04-29T04:51:24.314Z,2.57
2023-04-29T04:53:51.781Z,3.00
2023-04-29T04:56:18.397Z,3.37
2023-04-29T04:58:45.145Z,2.43
2023-04-29T05:01:11.945Z,2.80
2023-04-29T05:03:38.791Z,2.70
2023-04-29T05:06:05.791Z,1.87
2023-04-29T05:08:32.440Z,3.13
2023-04-29T05:10:59.149Z,2.80
2023-04-29T05:13:26.014Z,2.37
2023-04-29T05:15:52.779Z,1.93
2023-04-29T05:18:19.266Z,2.23
2023-04-29T05:20:46.013Z,2.60
2023-04-29T05:23:12.696Z,3.03
2023-04-29T05:25:39.328Z,2.53
2023-04-29T05:28:07.462Z,2.40
2023-04-29T05:30:34.158Z,2.67
2023-04-29T05:33:00.783Z,2.27
2023-04-29T05:35:27.772Z,2.50
2023-04-29T05:37:54.428Z,2.53
2023-04-29T05:40:23.405Z,2.83
2023-04-29T05:42:50.146Z,3.40
2023-04-29T05:45:16.835Z,3.10
2023-04-29T05:47:43.556Z,3.30
2023-04-29T05:50:11.576Z,3.57
2023-04-29T05:52:39.043Z,2.80
2023-04-29T05:55:05.985Z,2.80
2023-04-29T05:57:32.904Z,2.63
2023-04-29T06:00:00.242Z,2.37
2023-04-29T06:02:31.255Z,3.07
2023-04-29T06:04:58.179Z,3.40
2023-04-29T06:07:25.256Z,2.50
2023-04-29T06:09:52.047Z,3.20
2023-04-29T06:12:18.902Z,2.87
2023-04-29T06:14:45.503Z,2.77
2023-04-29T06:17:12.532Z,2.67
2023-04-29T06:19:39.209Z,3.30
2023-04-29T06:22:05.913Z,3.00
2023-04-29T06:24:32.456Z,3.07
2023-04-29T06:26:58.998Z,2.90
2023-04-29T06:29:25.631Z,3.07
2023-04-29T06:31:52.582Z,3.00
2023-04-29T06:34:20.139Z,2.63
2023-04-29T06:36:46.818Z,3.30
2023-04-29T06:39:13.748Z,2.93
2023-04-29T06:41:41.014Z,2.80
2023-04-29T06:44:08.011Z,2.77
2023-04-29T06:46:34.697Z,2.10
2023-04-29T06:49:01.493Z,2.17
2023-04-29T06:51:29.152Z,2.80
2023-04-29T06:53:55.797Z,2.70
2023-04-29T06:56:22.755Z,3.20
2023-04-29T06:58:49.502Z,3.10
2023-04-29T07:01:16.189Z,2.60
2023-04-29T07:03:45.477Z,2.63
2023-04-29T07:06:12.749Z,2.27
2023-04-29T07:08:39.548Z,2.43
2023-04-29T07:11:06.451Z,2.90
2023-04-29T07:13:33.098Z,2.60
2023-04-29T07:15:59.789Z,2.33
2023-04-29T07:18:26.403Z,2.23
2023-04-29T07:20:53.178Z,2.53
2023-04-29T07:23:19.719Z,1.83
2023-04-29T07:25:46.343Z,2.20
2023-04-29T07:28:13.025Z,2.57
2023-04-29T07:30:39.712Z,2.23
2023-04-29T07:33:06.402Z,2.50
2023-04-29T07:35:33.408Z,3.03
2023-04-29T07:38:00.007Z,2.40
2023-04-29T07:40:26.794Z,3.30
2023-04-29T07:42:53.509Z,2.53
2023-04-29T07:45:20.325Z,3.43
2023-04-29T07:47:46.925Z,3.10
2023-04-29T07:50:13.637Z,3.23
2023-04-29T07:52:40.330Z,2.40
2023-04-29T07:55:07.267Z,3.47
2023-04-29T07:57:33.944Z,2.77
2023-04-29T08:00:00.558Z,3.20
2023-04-29T08:02:27.361Z,2.70
2023-04-29T08:04:56.573Z,3.17
2023-04-29T08:07:23.697Z,2.47
2023-04-29T08:09:50.478Z,2.60
2023-04-29T08:12:17.387Z,3.10
2023-04-29T08:14:51.312Z,3.13
2023-04-29T08:17:17.993Z,2.50
2023-04-29T08:19:44.745Z,2.33
2023-04-29T08:22:12.387Z,2.97
2023-04-29T08:24:39.054Z,2.87
2023-04-29T08:27:05.841Z,2.53
2023-04-29T08:29:35.383Z,3.23
2023-04-29T08:32:02.277Z,3.03
2023-04-29T08:34:29.025Z,3.20
2023-04-29T08:36:57.633Z,2.63
2023-04-29T08:39:24.263Z,2.40
2023-04-29T08:41:51.424Z,3.00
2023-04-29T08:44:18.674Z,2.07
2023-04-29T08:46:46.957Z,2.57
2023-04-29T08:49:14.630Z,2.60
2023-04-29T08:51:41.494Z,2.17
2023-04-29T08:54:08.168Z,2.13
2023-04-29T08:56:34.944Z,2.73
2023-04-29T08:59:02.692Z,2.27
2023-04-29T09:01:30.130Z,2.20
2023-04-29T09:04:12.789Z,2.20
2023-04-29T09:06:39.523Z,1.63
2023-04-29T09:09:06.809Z,2.47
2023-04-29T09:11:34.744Z,2.13
2023-04-29T09:14:02.611Z,2.73
2023-04-29T09:16:29.403Z,1.80
2023-04-29T09:18:57.065Z,2.17
2023-04-29T09:21:25.539Z,2.63
2023-04-29T09:23:55.110Z,1.70
2023-04-29T09:26:22.821Z,2.90
2023-04-29T09:29:18.407Z,2.10
2023-04-29T09:31:46.261Z,2.70
2023-04-29T09:34:14.529Z,3.63
2023-04-29T09:36:48.528Z,2.83
2023-04-29T09:39:20.430Z,2.73
2023-04-29T09:41:53.167Z,2.97
2023-04-29T09:44:41.715Z,2.57
2023-04-29T09:47:10.002Z,2.17
2023-04-29T09:49:42.055Z,3.20
2023-04-29T09:52:14.153Z,2.00
2023-04-29T09:54:42.186Z,3.10
2023-04-29T09:57:12.688Z,2.73
2023-04-29T09:59:40.852Z,2.53
2023-04-29T10:02:18.604Z,2.97
2023-04-29T10:04:47.704Z,4.17
2023-04-29T10:07:17.148Z,2.67
2023-04-29T10:09:48.124Z,3.03
2023-04-29T10:12:18.542Z,3.17
2023-04-29T10:14:55.764Z,2.60
2023-04-29T10:17:37.200Z,2.37
2023-04-29T10:20:06.055Z,3.13
2023-04-29T10:22:55.023Z,2.30
2023-04-29T10:25:23.227Z,3.00
2023-04-29T10:27:52.060Z,3.20
2023-04-29T10:30:19.325Z,3.10
2023-04-29T10:32:52.137Z,3.60
2023-04-29T10:35:23.035Z,3.53
2023-04-29T10:37:50.307Z,4.40
2023-04-29T10:40:37.039Z,3.90
2023-04-29T10:43:04.670Z,3.50
2023-04-29T10:45:35.252Z,2.90
2023-04-29T10:48:01.818Z,2.80
2023-04-29T10:50:48.789Z,3.37
2023-04-29T10:53:20.132Z,3.00
2023-04-29T10:56:04.186Z,3.93
2023-04-29T10:58:40.758Z,3.80
2023-04-29T11:01:08.385Z,3.40
2023-04-29T11:04:00.475Z,4.40
2023-04-29T11:06:36.299Z,3.63
2023-04-29T11:09:04.950Z,3.87
2023-04-29T11:12:13.876Z,3.00
2023-04-29T11:14:40.454Z,2.90
2023-04-29T11:17:13.857Z,4.87
2023-04-29T11:20:01.147Z,4.23
2023-04-29T11:22:30.909Z,3.77
2023-04-29T11:25:03.322Z,3.60
2023-04-29T11:27:34.801Z,3.70
2023-04-29T11:30:05.373Z,3.80
2023-04-29T11:32:34.694Z,2.73
2023-04-29T11:35:08.611Z,3.40
2023-04-29T11:37:35.467Z,4.13
2023-04-29T11:40:02.377Z,3.23
2023-04-29T11:42:29.149Z,3.13
2023-04-29T11:45:00.561Z,4.17
2023-04-29T11:47:31.082Z,3.63
2023-04-29T11:50:10.271Z,4.03
2023-04-29T11:52:41.828Z,3.53
2023-04-29T11:55:12.285Z,3.77
2023-04-29T11:57:40.671Z,3.97
2023-04-29T12:00:14.934Z,3.43
2023-04-29T12:02:46.280Z,3.70
2023-04-29T12:05:15.095Z,3.30
2023-04-29T12:07:41.983Z,4.17
2023-04-29T12:10:12.435Z,3.80
2023-04-29T12:12:44.283Z,3.87
2023-04-29T12:15:11.883Z,4.13
2023-04-29T12:17:39.621Z,3.47
2023-04-29T12:20:09.489Z,4.20
2023-04-29T12:22:36.653Z,4.35
2023-04-29T12:25:04.187Z,4.38
2023-04-29T12:27:32.343Z,4.40
2023-04-29T12:29:58.940Z,4.80
2023-04-29T12:32:25.925Z,4.17
2023-04-29T12:34:53.370Z,4.00
2023-04-29T12:37:22.413Z,3.87
2023-04-29T12:39:50.663Z,5.30
2023-04-29T12:42:17.866Z,4.70
2023-04-29T12:44:51.189Z,4.53
2023-04-29T12:47:17.833Z,4.80
2023-04-29T12:49:46.166Z,5.50
2023-04-29T12:52:13.493Z,4.90
2023-04-29T12:54:44.316Z,4.97
2023-04-29T12:57:12.020Z,5.37
2023-04-29T12:59:39.803Z,5.20
2023-04-29T13:02:06.639Z,4.10
2023-04-29T13:04:33.401Z,5.50
2023-04-29T13:07:00.915Z,5.03
2023-04-29T13:09:27.630Z,4.87
2023-04-29T13:11:54.504Z,4.40
2023-04-29T13:14:22.026Z,4.77
2023-04-29T13:16:48.747Z,4.20
2023-04-29T13:19:30.433Z,4.87
2023-04-29T13:22:02.293Z,4.93
2023-04-29T13:24:33.273Z,4.87
2023-04-29T13:27:00.187Z,4.40
2023-04-29T13:29:27.147Z,4.83
2023-04-29T13:31:54.320Z,4.77
2023-04-29T13:34:21.586Z,4.97
2023-04-29T13:36:48.469Z,4.13
2023-04-29T13:39:15.776Z,4.13
2023-04-29T13:41:45.853Z,3.73
2023-04-29T13:44:24.016Z,4.43
2023-04-29T13:46:57.616Z,4.53
2023-04-29T13:49:54.717Z,4.53
2023-04-29T13:59:50.365Z,3.43
2023-04-29T14:04:48.978Z,3.63
2023-04-29T14:07:16.263Z,3.17
2023-04-29T14:09:43.329Z,3.20
2023-04-29T14:12:09.921Z,3.67
2023-04-29T14:14:36.732Z,3.63
2023-04-29T14:17:03.934Z,3.40
2023-04-29T14:19:30.682Z,3.70
2023-04-29T14:21:57.218Z,4.03
2023-04-29T14:24:23.822Z,3.43
2023-04-29T14:26:50.659Z,4.40
2023-04-29T14:29:17.204Z,3.73
2023-04-29T14:31:44.217Z,4.30
2023-04-29T14:34:11.020Z,3.50
2023-04-29T14:36:37.635Z,4.33
2023-04-29T14:39:04.412Z,4.03
2023-04-29T14:41:31.015Z,3.33
2023-04-29T14:43:57.680Z,4.07
2023-04-29T14:46:25.294Z,3.33
2023-04-29T14:48:52.074Z,3.80
2023-04-29T14:51:18.620Z,2.93
2023-04-29T14:53:45.270Z,3.00
2023-04-29T14:56:11.981Z,3.53
2023-04-29T14:58:38.725Z,4.03
2023-04-29T15:01:05.591Z,3.60
2023-04-29T15:03:32.236Z,3.80
2023-04-29T15:05:59.153Z,4.30
2023-04-29T15:08:25.873Z,3.60
2023-04-29T15:10:52.452Z,4.07
2023-04-29T15:13:19.461Z,3.90
2023-04-29T15:15:46.100Z,4.43
2023-04-29T15:18:12.970Z,3.77
2023-04-29T15:20:39.687Z,3.63
2023-04-29T15:23:06.821Z,3.53
2023-04-29T15:25:36.643Z,3.37
2023-04-29T15:28:04.908Z,4.23
2023-04-29T15:30:32.109Z,3.73
2023-04-29T15:32:58.793Z,3.77
2023-04-29T15:35:25.460Z,4.10
2023-04-29T15:37:51.998Z,3.70
2023-04-29T15:40:18.635Z,3.10
2023-04-29T15:42:45.294Z,3.47
2023-04-29T15:45:12.418Z,3.47
2023-04-29T15:47:39.119Z,3.50
2023-04-29T15:50:07.153Z,3.23
2023-04-29T15:52:33.780Z,3.87
2023-04-29T15:55:00.423Z,3.20
2023-04-29T15:57:27.366Z,3.23
2023-04-29T15:59:54.288Z,3.57
2023-04-29T16:02:21.533Z,3.40
2023-04-29T16:04:48.304Z,3.70
2023-04-29T16:07:15.060Z,3.73
2023-04-29T16:09:41.712Z,3.80
2023-04-29T16:12:08.734Z,3.43
2023-04-29T16:14:35.342Z,3.67
2023-04-29T16:17:02.117Z,4.07
2023-04-29T16:19:28.793Z,3.37
2023-04-29T16:21:55.605Z,3.50
2023-04-29T16:24:22.279Z,4.37
2023-04-29T16:26:49.840Z,3.33
2023-04-29T16:29:16.498Z,4.03
2023-04-29T16:31:43.728Z,3.03
2023-04-29T16:34:11.781Z,3.83
2023-04-29T16:36:38.392Z,3.53
2023-04-29T16:39:05.084Z,4.07
2023-04-29T16:41:32.107Z,3.17
2023-04-29T16:43:58.903Z,3.40
2023-04-29T16:46:26.229Z,3.00
2023-04-29T16:48:56.899Z,3.43
2023-04-29T16:51:27.515Z,3.80
2023-04-29T16:53:54.258Z,3.67
2023-04-29T16:56:22.659Z,3.80
2023-04-29T16:58:49.365Z,4.00
2023-04-29T17:01:16.497Z,4.77
2023-04-29T17:03:43.266Z,3.93
2023-04-29T17:06:09.951Z,3.73
2023-04-29T17:08:36.775Z,4.83
2023-04-29T17:11:05.250Z,4.00
2023-04-29T17:13:31.979Z,4.43
2023-04-29T17:15:59.134Z,3.83
2023-04-29T17:18:25.962Z,3.90
2023-04-29T17:20:52.915Z,4.30
2023-04-29T17:23:19.603Z,4.10
2023-04-29T17:25:46.591Z,3.50
2023-04-29T17:28:13.302Z,3.87
2023-04-29T17:30:39.881Z,4.00
2023-04-29T17:33:06.556Z,3.80
2023-04-29T17:35:33.597Z,3.33
2023-04-29T17:38:00.972Z,3.23
2023-04-29T17:40:27.645Z,3.57
2023-04-29T17:42:54.212Z,3.57
2023-04-29T17:45:21.145Z,4.10
2023-04-29T17:47:48.490Z,3.73
2023-04-29T17:50:15.253Z,3.47
2023-04-29T17:52:42.225Z,3.20
2023-04-29T17:55:09.338Z,2.93
2023-04-29T17:57:38.141Z,4.50
2023-04-29T18:00:07.585Z,3.97
2023-04-29T18:02:34.978Z,3.87
2023-04-29T18:05:03.279Z,4.20
2023-04-29T18:07:29.941Z,3.80
2023-04-29T18:09:56.825Z,7.70
2023-04-29T18:12:24.266Z,6.17
2023-04-29T18:14:52.005Z,4.90
2023-04-29T18:17:19.067Z,4.13
2023-04-29T18:19:52.413Z,3.90
2023-04-29T18:22:19.261Z,5.07
2023-04-29T18:24:46.751Z,7.70
2023-04-29T18:27:13.489Z,7.60
2023-04-29T18:29:40.064Z,5.77
2023-04-29T18:32:07.960Z,7.53
2023-04-29T18:34:35.039Z,5.67
2023-04-29T18:37:01.749Z,5.70
2023-04-29T18:39:28.478Z,7.30
2023-04-29T18:41:55.402Z,7.77
2023-04-29T18:44:22.014Z,7.20
2023-04-29T18:46:48.578Z,5.87
2023-04-29T18:49:17.127Z,5.37
2023-04-29T18:51:46.765Z,5.40
2023-04-29T18:54:18.596Z,4.47
2023-04-29T18:56:49.915Z,5.33
2023-04-29T18:59:19.626Z,4.77
2023-04-29T19:01:47.672Z,5.23
2023-04-29T19:04:14.624Z,9.40
2023-04-29T19:06:41.970Z,5.40
2023-04-29T19:09:08.792Z,7.00
2023-04-29T19:11:36.316Z,5.60
2023-04-29T19:14:04.310Z,7.23
2023-04-29T19:16:31.013Z,10.70
2023-04-29T19:18:57.608Z,6.10
2023-04-29T19:21:24.252Z,7.93
2023-04-29T19:23:50.883Z,7.77
2023-04-29T19:26:17.557Z,12.53
2023-04-29T19:28:44.102Z,6.33
2023-04-29T19:31:11.814Z,6.90
2023-04-29T19:33:38.481Z,7.03
2023-04-29T19:36:05.124Z,4.53
2023-04-29T19:38:31.675Z,5.33
2023-04-29T19:40:58.306Z,7.00
2023-04-29T19:43:24.950Z,6.03
2023-04-29T19:45:51.550Z,7.93
2023-04-29T19:48:18.190Z,8.33
2023-04-29T19:50:44.868Z,7.83
2023-04-29T19:53:11.572Z,5.90
2023-04-29T19:55:39.948Z,5.87
2023-04-29T19:58:07.689Z,6.87
2023-04-29T20:00:34.538Z,6.70
2023-04-29T20:03:01.285Z,5.60
2023-04-29T20:05:28.936Z,4.87
2023-04-29T20:07:55.971Z,5.97
2023-04-29T20:10:22.747Z,5.83
2023-04-29T20:12:49.306Z,5.23
2023-04-29T20:15:16.057Z,5.30
2023-04-29T20:17:42.627Z,6.30
2023-04-29T20:20:09.485Z,6.27
2023-04-29T20:22:36.293Z,5.77
2023-04-29T20:25:04.232Z,5.93
2023-04-29T20:27:30.853Z,4.90
2023-04-29T20:29:57.493Z,5.67
2023-04-29T20:32:24.281Z,5.23
2023-04-29T20:34:51.301Z,6.17
2023-04-29T20:37:19.904Z,5.33
2023-04-29T20:39:47.534Z,5.17
2023-04-29T20:42:14.329Z,5.37
2023-04-29T20:44:41.107Z,5.20
2023-04-29T20:47:07.614Z,6.20
2023-04-29T20:49:34.350Z,6.07
2023-04-29T20:52:01.562Z,5.50
2023-04-29T20:54:28.339Z,5.07
2023-04-29T20:56:54.968Z,6.00
2023-04-29T20:59:21.493Z,6.37
2023-04-29T21:01:48.259Z,5.27
2023-04-29T21:04:15.083Z,4.73
2023-04-29T21:06:41.755Z,5.60
2023-04-29T21:09:09.131Z,5.93
2023-04-29T21:11:35.752Z,6.33
2023-04-29T21:14:02.361Z,5.83
2023-04-29T21:16:28.968Z,5.97
2023-04-29T21:18:55.537Z,5.97
2023-04-29T21:21:23.310Z,5.50
2023-04-29T21:23:49.817Z,5.40
2023-04-29T21:26:16.417Z,6.57
2023-04-29T21:28:43.141Z,5.80
2023-04-29T21:31:15.535Z,5.73
2023-04-29T21:33:46.297Z,5.20
2023-04-29T21:36:13.361Z,5.63
2023-04-29T21:38:39.949Z,5.63
2023-04-29T21:41:07.016Z,5.03
2023-04-29T21:43:33.918Z,6.10
2023-04-29T21:46:00.805Z,5.63
2023-04-29T21:48:27.571Z,5.57
2023-04-29T21:50:54.197Z,6.27
2023-04-29T21:53:20.988Z,5.63
2023-04-29T21:55:47.790Z,5.33
2023-04-29T21:58:14.493Z,5.40
2023-04-29T22:00:47.965Z,4.97
2023-04-29T22:03:15.336Z,5.50
2023-04-29T22:05:42.013Z,5.03
2023-04-29T22:08:08.533Z,5.47
2023-04-29T22:10:35.137Z,5.93
2023-04-29T22:13:01.817Z,7.70
2023-04-29T22:15:29.529Z,5.60
2023-04-29T22:17:57.077Z,6.87
2023-04-29T22:20:24.009Z,7.10
2023-04-29T22:22:50.668Z,6.13
2023-04-29T22:25:18.150Z,6.17
2023-04-29T22:27:44.725Z,6.37
2023-04-29T22:30:11.816Z,6.77
2023-04-29T22:32:38.435Z,5.73
2023-04-29T22:35:05.578Z,5.43
2023-04-29T22:37:32.125Z,5.77
2023-04-29T22:39:59.166Z,5.97
2023-04-29T22:42:25.770Z,7.33
2023-04-29T22:44:52.312Z,5.37
2023-04-29T22:47:18.796Z,6.00
2023-04-29T22:49:45.395Z,5.27
2023-04-29T22:52:12.085Z,5.83
2023-04-29T22:54:38.621Z,6.07
2023-04-29T22:57:05.225Z,5.77
2023-04-29T22:59:31.939Z,6.53
2023-04-29T23:01:58.660Z,5.90
2023-04-29T23:04:25.501Z,5.97
2023-04-29T23:06:52.259Z,5.67
2023-04-29T23:09:19.062Z,6.20
2023-04-29T23:11:45.743Z,6.07
2023-04-29T23:14:12.277Z,5.60
2023-04-29T23:16:38.773Z,6.37
2023-04-29T23:19:05.403Z,6.00
2023-04-29T23:21:32.611Z,6.63
2023-04-29T23:23:59.241Z,6.33
2023-04-29T23:26:25.813Z,6.93
2023-04-29T23:28:52.386Z,6.97
2023-04-29T23:31:19.025Z,6.30
2023-04-29T23:33:45.651Z,6.80
2023-04-29T23:36:12.269Z,6.13
2023-04-29T23:38:38.869Z,5.80
2023-04-29T23:41:05.393Z,5.40
2023-04-29T23:43:32.246Z,4.80
2023-04-29T23:45:58.949Z,5.90
2023-04-29T23:48:25.517Z,5.70
2023-04-29T23:50:52.052Z,6.70
2023-04-29T23:53:18.740Z,5.90
2023-04-29T23:55:45.496Z,5.70
2023-04-29T23:58:12.167Z,6.60
